createdAt,value
2022-08-07T00:00:27.957Z,48.05
2022-08-07T00:02:56.864Z,48.68
2022-08-07T00:05:24.967Z,49.50
2022-08-07T00:07:59.788Z,48.95
2022-08-07T00:10:30.917Z,49.27
2022-08-07T00:13:17.421Z,50.43
2022-08-07T00:15:55.905Z,49.76
2022-08-07T00:18:28.684Z,50.13
2022-08-07T00:21:08.127Z,51.11
2022-08-07T00:23:52.765Z,50.61
2022-08-07T00:26:48.758Z,51.90
2022-08-07T00:29:06.234Z,52.16
2022-08-07T00:31:37.881Z,51.31
2022-08-07T00:34:09.105Z,50.96
2022-08-07T00:36:42.652Z,52.15
2022-08-07T00:39:16.963Z,50.77
2022-08-07T00:42:02.223Z,52.43
2022-08-07T00:44:33.637Z,51.41
2022-08-07T00:47:16.150Z,53.48
2022-08-07T00:50:21.216Z,53.00
2022-08-07T00:52:40.046Z,50.96
2022-08-07T00:55:10.382Z,52.36
2022-08-07T00:57:37.527Z,53.12
2022-08-07T01:00:15.728Z,53.29
2022-08-07T01:02:43.007Z,53.50
2022-08-07T01:05:19.243Z,53.13
2022-08-07T01:07:47.536Z,53.98
2022-08-07T01:10:17.122Z,53.06
2022-08-07T01:12:53.772Z,54.04
2022-08-07T01:15:35.641Z,53.97
2022-08-07T01:18:03.162Z,54.07
2022-08-07T01:20:45.858Z,53.99
2022-08-07T01:23:36.353Z,54.60
2022-08-07T01:26:08.390Z,54.78
2022-08-07T01:28:45.864Z,53.94
2022-08-07T01:31:20.336Z,54.21
2022-08-07T01:33:55.429Z,55.40
2022-08-07T01:36:33.208Z,55.34
2022-08-07T01:39:01.175Z,56.31
2022-08-07T01:41:28.765Z,56.42
2022-08-07T01:44:03.169Z,56.90
2022-08-07T01:46:31.143Z,57.54
2022-08-07T01:48:59.966Z,57.68
2022-08-07T01:52:03.417Z,57.89
2022-08-07T01:54:32.636Z,58.03
2022-08-07T01:57:20.744Z,57.51
2022-08-07T02:00:13.327Z,57.39
2022-08-07T02:03:19.016Z,57.71
2022-08-07T02:05:59.982Z,57.34
2022-08-07T02:08:33.792Z,58.15
2022-08-07T02:11:03.835Z,57.47
2022-08-07T02:13:56.403Z,57.58
2022-08-07T02:16:28.550Z,58.85
2022-08-07T02:20:05.205Z,59.11
2022-08-07T02:21:59.624Z,57.18
2022-08-07T02:24:30.074Z,57.09
2022-08-07T02:27:01.430Z,55.76
2022-08-07T02:29:31.604Z,56.25
2022-08-07T02:32:01.888Z,57.49
2022-08-07T02:34:33.022Z,58.51
2022-08-07T02:37:08.295Z,58.44
2022-08-07T02:40:02.291Z,57.35
2022-08-07T02:42:39.547Z,57.24
2022-08-07T02:46:00.804Z,57.75
2022-08-07T02:47:59.169Z,58.09
2022-08-07T02:50:30.781Z,58.13
2022-08-07T02:53:07.399Z,57.81
2022-08-07T02:56:03.934Z,59.61
2022-08-07T02:58:34.683Z,59.36
2022-08-07T03:01:04.038Z,58.55
2022-08-07T03:03:50.038Z,59.34
2022-08-07T03:06:25.824Z,60.05
2022-08-07T03:09:03.628Z,59.39
2022-08-07T03:11:38.555Z,60.02
2022-08-07T03:14:07.456Z,59.56
2022-08-07T03:16:35.959Z,59.20
2022-08-07T03:19:06.057Z,59.19
2022-08-07T03:21:33.397Z,59.71
2022-08-07T03:24:21.192Z,58.93
2022-08-07T03:26:59.060Z,60.03
2022-08-07T03:29:49.627Z,59.03
2022-08-07T03:32:33.417Z,58.89
2022-08-07T03:35:17.762Z,60.00
2022-08-07T03:37:53.990Z,59.79
2022-08-07T03:40:23.555Z,61.21
2022-08-07T03:43:14.761Z,61.06
2022-08-07T03:46:10.492Z,61.54
2022-08-07T03:49:03.710Z,61.28
2022-08-07T03:51:55.140Z,60.34
2022-08-07T03:54:54.102Z,61.24
2022-08-07T03:58:33.287Z,59.57
2022-08-07T04:00:29.194Z,58.94
2022-08-07T04:02:59.640Z,58.91
2022-08-07T04:05:40.734Z,57.88
2022-08-07T04:08:16.200Z,58.35
2022-08-07T04:10:54.290Z,58.60
2022-08-07T04:14:10.160Z,58.22
2022-08-07T04:16:31.196Z,58.87
2022-08-07T04:19:14.679Z,58.22
2022-08-07T04:21:58.886Z,58.99
2022-08-07T04:24:30.721Z,58.95
2022-08-07T04:27:02.857Z,58.55
2022-08-07T04:29:40.351Z,58.70
2022-08-07T04:32:18.712Z,58.22
2022-08-07T04:35:07.341Z,58.68
2022-08-07T04:38:03.257Z,59.22
2022-08-07T04:40:30.002Z,59.71
2022-08-07T04:43:22.225Z,59.33
2022-08-07T04:47:03.906Z,59.83
2022-08-07T04:49:58.011Z,60.07
2022-08-07T04:52:58.196Z,61.36
2022-08-07T04:58:12.160Z,61.27
2022-08-07T04:59:16.984Z,59.78
2022-08-07T05:01:57.245Z,60.56
2022-08-07T05:04:43.920Z,59.86
2022-08-07T05:07:43.408Z,60.64
2022-08-07T05:10:29.144Z,59.68
2022-08-07T05:14:44.730Z,61.79
2022-08-07T05:15:59.854Z,60.84
2022-08-07T05:18:36.674Z,60.74
2022-08-07T05:21:09.774Z,61.80
2022-08-07T05:23:45.723Z,61.19
2022-08-07T05:26:23.658Z,60.36
2022-08-07T05:28:58.049Z,59.76
2022-08-07T05:31:35.375Z,60.21
2022-08-07T05:34:11.122Z,60.27
2022-08-07T05:36:43.449Z,58.35
2022-08-07T05:40:13.675Z,58.65
2022-08-07T05:42:02.238Z,58.89
2022-08-07T05:44:36.298Z,60.81
2022-08-07T05:47:18.395Z,59.75
2022-08-07T05:49:50.584Z,56.96
2022-08-07T05:52:32.194Z,59.26
2022-08-07T05:55:05.446Z,59.33
2022-08-07T05:57:41.932Z,59.28
2022-08-07T06:00:16.156Z,58.50
2022-08-07T06:02:52.253Z,58.58
2022-08-07T06:05:26.061Z,56.98
2022-08-07T06:08:13.536Z,58.22
2022-08-07T06:10:46.714Z,56.04
2022-08-07T06:13:18.692Z,56.01
2022-08-07T06:15:49.926Z,57.05
2022-08-07T06:18:18.278Z,53.67
2022-08-07T06:20:50.482Z,54.61
2022-08-07T06:24:37.907Z,55.95
2022-08-07T06:26:21.977Z,55.00
2022-08-07T06:29:00.051Z,54.12
2022-08-07T06:31:46.554Z,53.85
2022-08-07T06:34:15.219Z,56.68
2022-08-07T06:36:46.572Z,54.49
2022-08-07T06:40:17.434Z,55.74
2022-08-07T06:42:39.977Z,53.29
2022-08-07T06:45:18.315Z,53.67
2022-08-07T06:47:48.146Z,52.32
2022-08-07T06:50:26.539Z,51.95
2022-08-07T06:52:55.783Z,53.63
2022-08-07T06:55:54.020Z,54.90
2022-08-07T06:58:27.451Z,50.28
2022-08-07T07:00:57.918Z,50.77
2022-08-07T07:03:26.290Z,48.95
2022-08-07T07:06:11.499Z,50.93
2022-08-07T07:08:39.938Z,50.15
2022-08-07T07:12:08.138Z,47.21
2022-08-07T07:14:04.195Z,48.96
2022-08-07T07:16:50.091Z,44.49
2022-08-07T07:19:57.358Z,44.90
2022-08-07T07:22:33.750Z,43.48
2022-08-07T07:26:31.054Z,44.25
2022-08-07T07:28:42.425Z,44.72
2022-08-07T07:31:44.648Z,44.22
2022-08-07T07:34:30.870Z,41.84
2022-08-07T07:37:14.389Z,42.54
2022-08-07T07:39:52.398Z,43.47
2022-08-07T07:42:32.930Z,42.51
2022-08-07T07:45:06.758Z,42.70
2022-08-07T07:47:52.148Z,40.91
2022-08-07T07:50:33.944Z,41.73
2022-08-07T07:53:13.579Z,41.14
2022-08-07T07:56:00.834Z,41.11
2022-08-07T07:58:36.885Z,41.50
2022-08-07T08:02:02.263Z,40.67
2022-08-07T08:04:10.490Z,40.10
2022-08-07T08:06:50.727Z,40.65
2022-08-07T08:09:24.107Z,39.41
2022-08-07T08:12:01.586Z,38.94
2022-08-07T08:14:34.524Z,39.68
2022-08-07T08:17:32.284Z,38.56
2022-08-07T08:20:22.098Z,38.18
2022-08-07T08:23:14.880Z,37.39
2022-08-07T08:26:06.918Z,37.29
2022-08-07T08:28:44.915Z,37.39
2022-08-07T08:31:22.789Z,37.41
2022-08-07T08:34:01.288Z,38.30
2022-08-07T08:36:34.289Z,35.85
2022-08-07T08:39:03.398Z,37.60
2022-08-07T08:41:58.601Z,34.07
2022-08-07T08:45:41.438Z,34.92
2022-08-07T08:48:32.344Z,35.69
2022-08-07T08:51:49.878Z,35.46
2022-08-07T08:54:31.235Z,34.02
2022-08-07T08:57:08.289Z,34.46
2022-08-07T08:59:52.020Z,34.45
2022-08-07T09:03:09.953Z,36.39
2022-08-07T09:06:06.532Z,35.41
2022-08-07T09:09:09.538Z,36.28
2022-08-07T09:12:31.062Z,33.52
2022-08-07T09:16:23.130Z,34.54
2022-08-07T09:18:47.304Z,34.13
2022-08-07T09:21:57.821Z,33.88
2022-08-07T09:25:00.635Z,32.99
2022-08-07T09:28:00.459Z,34.50
2022-08-07T09:31:17.398Z,33.04
2022-08-07T09:33:58.301Z,34.93
2022-08-07T09:36:37.328Z,34.58
2022-08-07T09:39:52.715Z,32.73
2022-08-07T09:42:28.373Z,32.28
2022-08-07T09:47:50.580Z,32.24
2022-08-07T09:48:55.818Z,32.94
2022-08-07T09:52:10.134Z,34.44
2022-08-07T09:54:54.411Z,32.98
2022-08-07T09:57:46.648Z,31.89
2022-08-07T10:00:20.183Z,34.87
2022-08-07T10:04:05.692Z,31.54
2022-08-07T10:06:37.868Z,31.88
2022-08-07T10:10:01.061Z,32.13
2022-08-07T10:12:55.327Z,30.35
2022-08-07T10:15:44.512Z,31.79
2022-08-07T10:18:57.667Z,30.85
2022-08-07T10:22:17.030Z,30.92
2022-08-07T10:24:57.314Z,31.32
2022-08-07T10:27:53.795Z,31.52
2022-08-07T10:31:11.122Z,31.12
2022-08-07T10:34:17.811Z,31.01
2022-08-07T10:37:18.968Z,31.05
2022-08-07T10:40:30.345Z,29.45
2022-08-07T10:43:34.723Z,31.50
2022-08-07T10:46:13.502Z,29.83
2022-08-07T10:49:02.411Z,29.16
2022-08-07T10:52:13.814Z,31.07
2022-08-07T10:54:53.523Z,29.45
2022-08-07T10:57:58.489Z,29.36
2022-08-07T11:00:50.510Z,29.59
2022-08-07T11:03:55.160Z,28.60
2022-08-07T11:06:40.265Z,28.79
2022-08-07T11:10:09.889Z,29.00
2022-08-07T11:12:31.501Z,28.84
2022-08-07T11:15:17.266Z,28.82
2022-08-07T11:17:50.285Z,27.78
2022-08-07T11:20:35.441Z,28.13
2022-08-07T11:23:30.858Z,27.91
2022-08-07T11:26:25.179Z,29.29
2022-08-07T11:29:40.780Z,28.81
2022-08-07T11:32:15.445Z,27.17
2022-08-07T11:35:02.503Z,28.35
2022-08-07T11:38:08.814Z,28.88
2022-08-07T11:41:02.114Z,28.91
2022-08-07T11:44:12.770Z,27.87
2022-08-07T11:47:06.415Z,27.96
2022-08-07T11:50:31.693Z,26.87
2022-08-07T11:53:08.229Z,27.93
2022-08-07T11:56:27.144Z,26.94
2022-08-07T12:00:12.325Z,27.90
2022-08-07T12:02:52.409Z,27.27
2022-08-07T12:05:51.462Z,26.69
2022-08-07T12:08:37.202Z,26.83
2022-08-07T12:11:21.847Z,27.41
2022-08-07T12:14:27.585Z,26.93
2022-08-07T12:17:02.991Z,25.98
2022-08-07T12:20:04.122Z,27.76
2022-08-07T12:23:14.306Z,26.23
2022-08-07T12:26:41.872Z,25.25
2022-08-07T12:29:38.134Z,27.29
2022-08-07T12:32:48.309Z,25.30
2022-08-07T12:35:20.259Z,27.74
2022-08-07T12:38:10.034Z,26.79
2022-08-07T12:40:47.846Z,27.12
2022-08-07T12:44:01.425Z,27.89
2022-08-07T12:46:53.605Z,26.09
2022-08-07T12:50:38.459Z,29.62
2022-08-07T12:54:02.808Z,28.31
2022-08-07T12:56:51.456Z,27.37
2022-08-07T12:59:33.005Z,27.08
2022-08-07T13:02:33.234Z,26.69
2022-08-07T13:06:02.577Z,27.01
2022-08-07T13:08:41.269Z,25.34
2022-08-07T13:11:31.313Z,27.26
2022-08-07T13:14:55.205Z,100.00
2022-08-07T13:17:42.529Z,25.79
2022-08-07T13:20:27.681Z,28.97
2022-08-07T13:24:03.937Z,24.88
2022-08-07T13:26:19.976Z,22.30
2022-08-07T13:29:27.185Z,19.25
2022-08-07T13:32:32.704Z,20.79
2022-08-07T13:35:12.036Z,18.33
2022-08-07T13:38:21.631Z,17.47
2022-08-07T13:41:31.912Z,18.05
2022-08-07T13:44:10.632Z,21.67
2022-08-07T13:46:49.644Z,19.32
2022-08-07T13:50:33.342Z,19.98
2022-08-07T13:52:31.656Z,21.28
2022-08-07T13:54:58.561Z,21.79
2022-08-07T13:57:38.235Z,21.01
2022-08-07T14:00:26.239Z,20.46
2022-08-07T14:02:58.900Z,20.28
2022-08-07T14:05:37.472Z,19.59
2022-08-07T14:08:08.004Z,19.19
2022-08-07T14:10:42.181Z,17.39
2022-08-07T14:13:18.659Z,18.40
2022-08-07T14:16:06.157Z,17.57
2022-08-07T14:18:56.728Z,18.16
2022-08-07T14:22:02.082Z,19.18
2022-08-07T14:24:41.505Z,18.71
2022-08-07T14:28:09.407Z,20.84
2022-08-07T14:30:11.037Z,20.32
2022-08-07T14:32:47.848Z,20.00
2022-08-07T14:38:30.831Z,20.55
2022-08-07T14:41:14.648Z,19.49
2022-08-07T14:43:55.128Z,19.55
2022-08-07T14:46:31.434Z,19.11
2022-08-07T14:49:17.192Z,21.44
2022-08-07T14:52:03.800Z,19.83
2022-08-07T14:57:25.249Z,22.14
2022-08-07T15:00:20.631Z,23.78
2022-08-07T15:03:16.628Z,21.74
2022-08-07T15:05:54.407Z,20.89
2022-08-07T15:08:47.472Z,25.06
2022-08-07T15:11:53.250Z,22.13
2022-08-07T15:14:15.068Z,22.90
2022-08-07T15:22:53.868Z,22.81
2022-08-07T15:25:50.848Z,24.38
2022-08-07T15:28:34.112Z,23.58
2022-08-07T15:31:10.590Z,24.57
2022-08-07T15:33:42.814Z,26.63
2022-08-07T15:36:11.685Z,24.64
2022-08-07T15:38:59.099Z,24.88
2022-08-07T15:42:46.822Z,24.99
2022-08-07T15:47:16.478Z,23.99
2022-08-07T15:50:03.778Z,24.89
2022-08-07T15:52:38.005Z,24.93
2022-08-07T15:55:12.177Z,25.27
2022-08-07T15:57:48.831Z,25.59
2022-08-07T16:00:31.258Z,25.16
2022-08-07T16:03:06.594Z,24.84
2022-08-07T16:05:52.561Z,24.93
2022-08-07T16:08:33.055Z,24.53
2022-08-07T16:11:26.214Z,25.76
2022-08-07T16:14:17.247Z,27.42
2022-08-07T16:18:02.313Z,27.80
2022-08-07T16:21:42.982Z,27.77
2022-08-07T16:23:59.002Z,27.06
2022-08-07T16:26:30.741Z,28.40
2022-08-07T16:30:10.941Z,25.32
2022-08-07T16:32:35.356Z,29.96
2022-08-07T16:35:58.568Z,25.63
2022-08-07T16:39:00.014Z,24.23
2022-08-07T16:41:41.173Z,23.65
2022-08-07T16:45:24.604Z,27.31
2022-08-07T16:48:28.835Z,22.08
2022-08-07T16:51:57.700Z,23.53
2022-08-07T16:55:16.680Z,26.39
2022-08-07T16:58:08.238Z,27.85
2022-08-07T17:00:54.331Z,25.29
2022-08-07T17:03:59.570Z,23.55
2022-08-07T17:07:28.558Z,24.14
2022-08-07T17:10:32.529Z,23.19
2022-08-07T17:13:41.238Z,25.05
2022-08-07T17:16:55.887Z,23.65
2022-08-07T17:20:03.154Z,22.08
2022-08-07T17:23:00.172Z,26.17
2022-08-07T17:25:52.110Z,26.21
2022-08-07T17:28:35.273Z,26.73
2022-08-07T17:31:20.515Z,24.74
2022-08-07T17:34:33.038Z,26.22
2022-08-07T17:37:09.037Z,26.60
2022-08-07T17:40:14.436Z,27.67
2022-08-07T17:43:17.787Z,27.67
2022-08-07T17:45:56.671Z,28.75
2022-08-07T17:48:31.890Z,26.41
2022-08-07T17:51:59.824Z,31.53
2022-08-07T17:54:53.719Z,26.22
2022-08-07T17:57:58.573Z,27.32
2022-08-07T18:00:34.691Z,27.36
2022-08-07T18:04:04.071Z,26.98
2022-08-07T18:06:39.022Z,29.00
2022-08-07T18:09:48.406Z,27.49
2022-08-07T18:12:30.445Z,28.76
2022-08-07T18:15:22.613Z,29.87
2022-08-07T18:18:45.695Z,28.48
2022-08-07T18:21:37.337Z,30.17
2022-08-07T18:24:34.449Z,30.05
2022-08-07T18:27:38.962Z,30.55
2022-08-07T18:30:31.850Z,29.39
2022-08-07T18:33:55.017Z,29.60
2022-08-07T18:36:59.135Z,28.58
2022-08-07T18:40:42.807Z,30.62
2022-08-07T18:43:50.578Z,30.69
2022-08-07T18:46:42.846Z,30.09
2022-08-07T18:50:19.230Z,31.28
2022-08-07T18:52:55.102Z,30.86
2022-08-07T18:55:56.204Z,30.94
2022-08-07T18:59:46.712Z,30.08
2022-08-07T19:02:36.836Z,29.30
2022-08-07T19:06:03.426Z,31.02
2022-08-07T19:08:40.998Z,31.95
2022-08-07T19:11:36.082Z,31.17
2022-08-07T19:14:35.796Z,32.04
2022-08-07T19:17:22.097Z,32.17
2022-08-07T19:20:29.191Z,32.09
2022-08-07T19:23:56.927Z,32.33
2022-08-07T19:26:23.122Z,31.16
2022-08-07T19:31:01.926Z,31.92
2022-08-07T19:32:18.630Z,31.79
2022-08-07T19:34:52.838Z,32.73
2022-08-07T19:37:22.719Z,33.62
2022-08-07T19:40:04.882Z,33.25
2022-08-07T19:42:44.400Z,33.49
2022-08-07T19:46:08.216Z,33.95
2022-08-07T19:48:18.463Z,34.12
2022-08-07T19:50:51.094Z,33.26
2022-08-07T19:54:32.589Z,35.55
2022-08-07T19:58:02.492Z,34.06
2022-08-07T19:59:02.693Z,34.27
2022-08-07T20:01:56.274Z,36.49
2022-08-07T20:04:31.683Z,36.11
2022-08-07T20:07:10.592Z,36.84
2022-08-07T20:10:35.779Z,36.00
2022-08-07T20:12:39.793Z,36.40
2022-08-07T20:15:21.911Z,36.57
2022-08-07T20:18:01.264Z,37.51
2022-08-07T20:20:32.736Z,36.84
2022-08-07T20:23:23.036Z,37.65
2022-08-07T20:25:56.060Z,39.27
2022-08-07T20:28:30.737Z,37.80
2022-08-07T20:30:59.286Z,39.09
2022-08-07T20:33:38.180Z,39.99
2022-08-07T20:36:09.754Z,39.19
2022-08-07T20:38:59.474Z,39.09
2022-08-07T20:41:34.064Z,38.97
2022-08-07T20:44:10.451Z,39.24
2022-08-07T20:46:43.880Z,39.62
2022-08-07T20:49:59.943Z,39.97
2022-08-07T20:52:16.437Z,40.15
2022-08-07T20:54:53.201Z,40.14
2022-08-07T20:57:47.466Z,40.96
2022-08-07T21:00:42.757Z,40.13
2022-08-07T21:03:19.116Z,40.72
2022-08-07T21:06:03.476Z,39.67
2022-08-07T21:08:46.682Z,40.80
2022-08-07T21:11:18.339Z,40.65
2022-08-07T21:14:16.631Z,41.90
2022-08-07T21:16:56.797Z,41.69
2022-08-07T21:19:51.719Z,42.48
2022-08-07T21:22:45.113Z,41.93
2022-08-07T21:25:39.235Z,42.30
2022-08-07T21:28:48.680Z,43.73
2022-08-07T21:32:41.806Z,45.42
2022-08-07T21:35:11.505Z,46.99
2022-08-07T21:38:04.430Z,47.96
2022-08-07T21:40:49.878Z,48.83
2022-08-07T21:43:25.346Z,47.90
2022-08-07T21:46:31.743Z,48.18
2022-08-07T21:49:26.822Z,48.20
2022-08-07T21:52:11.460Z,49.11
2022-08-07T21:55:03.592Z,49.41
2022-08-07T21:58:04.281Z,49.04
2022-08-07T22:00:32.419Z,50.17
2022-08-07T22:03:30.872Z,50.16
2022-08-07T22:06:31.282Z,48.56
2022-08-07T22:09:25.083Z,49.37
2022-08-07T22:12:06.805Z,49.99
2022-08-07T22:16:40.235Z,49.49
2022-08-07T22:18:14.821Z,48.22
2022-08-07T22:20:59.721Z,48.15
2022-08-07T22:23:56.852Z,49.73
2022-08-07T22:26:40.081Z,48.38
2022-08-07T22:29:37.797Z,47.60
2022-08-07T22:32:37.655Z,47.28
2022-08-07T22:35:11.156Z,47.84
2022-08-07T22:38:20.594Z,46.18
2022-08-07T22:41:11.596Z,46.96
2022-08-07T22:43:49.566Z,47.09
2022-08-07T22:47:14.982Z,48.35
2022-08-07T22:50:33.511Z,48.56
2022-08-07T22:54:05.573Z,47.94
2022-08-07T22:56:35.431Z,47.59
2022-08-07T22:59:34.676Z,45.95
2022-08-07T23:02:37.290Z,45.12
2022-08-07T23:06:08.856Z,45.19
2022-08-07T23:08:23.863Z,45.91
2022-08-07T23:11:21.331Z,46.86
2022-08-07T23:14:40.357Z,47.88
2022-08-07T23:17:37.605Z,48.83
2022-08-07T23:20:51.157Z,48.91
2022-08-07T23:24:04.167Z,49.60
2022-08-07T23:26:50.567Z,49.36
2022-08-07T23:30:38.667Z,48.11
2022-08-07T23:34:34.557Z,48.19
2022-08-07T23:36:43.065Z,48.81
2022-08-07T23:39:27.555Z,47.27
2022-08-07T23:42:53.375Z,47.11
2022-08-07T23:46:02.675Z,47.47
2022-08-07T23:49:49.867Z,48.61
2022-08-07T23:53:01.774Z,47.71
2022-08-07T23:55:53.045Z,48.06
2022-08-07T23:58:51.024Z,50.12
